Hauptseite
METAR-TAF:

METAR-TAF

Flughäfen :

Flughafen Chambéry-Savoie

Chambery / Aix-Les-Bains, Frankreich

Breite: 45-39N, Länge: 005-53E, Höhe: 235 m

Beobachtung

Neuester Wetterbericht von vor 33 Minuten, um 10:00 UTC
Wind 10 kt aus Nord
Temperatur 25°C
Luftfeuchtigkeit 54%
Luftdruck 1014 hPa
Sichtweite 10 km oder mehr
Leicht bewölkt in der Höhe von 4500 ft

METAR: LFLB 221000Z AUTO 01010KT 9999 FEW045 25/15 Q1014 NOSIG

Zeit: 12:33 (10:33 UTC)

Prognose

Neuester Wetterbericht von vor 5 Stunden und 33 Minuten, um 05:00 UTC
Gültige Prognose vom 22 um 06 UTC bis 23 um 06 UTC
Wind 10 kt aus Nord
Sichtweite 10 km oder mehr
keine Wolken unter 1500 m und keine Kumulonimbus oder Gewitterwolken

TAF: LFLB 220500Z 2206/2306 36010KT CAVOK

Wetterbeobachtungen und Prognosen von mehr als 4000 Flughäfen (METAR und TAF Bericht).

Die verfügbaren Stationen werden durch gelbe und rote Markierungen auf der Karte dargestellt.

Führen Sie die Maus auf sie, um den Namen der Station zu sehen.

Darauf klicken, um die Beobachtung von Wetterbeobachtungen und Prognosen zu sehen.

Um die Karte zu ändern : klicken Sie auf den grünen Tasten mit einem schwarzen Kreuz Zum Vergrößern, auf den grünen Button mit einem Gedankenstrich zu verkleinern, oder auf die grünen Pfeile für benachbarte Karten.


METAR-TAF: